Terminal Aerodrome Forecast
Issued by NWS

Home | Current Version | Previous Version | Text Only | Print | Product List | Glossary On
Versions: 1 2 3 4 5 6 7 8 9 10 11 12 13
013
FTUS46 KEKA 301136
TAFUKI
TAF
KUKI 301136Z 3012/3112 35004KT P6SM SKC
     FM301800 32010G16KT P6SM BKN150
     FM310500 35005KT P6SM BKN070=

USA.gov is the U.S. government's official web portal to all federal, state and local government web resources and services.